Terminal Aerodrome Forecast
Issued by NWS

Home | Current Version | Previous Version | Graphics & Text | Print | Product List | Glossary On
Versions: 1 2 3 4 5 6 7 8 9 10 11 12 13 14 15 16 17 18 19 20 21 22 23 24 25 26 27 28 29 30 31 32 33
000
FTUS43 KLOT 261800 AAA
TAFMDW
TAF AMD
KMDW 261856Z 2619/2718 02014KT 2SM -SHSN BLSN SCT020 OVC025
      TEMPO 2619/2620 3/4SM -SHSN OVC015
     FM262000 36012KT 2SM -SHSN OVC025
     FM262100 35012KT 6SM BLSN VCSH SCT020 BKN035
     FM262200 34012KT P6SM SCT035
     FM270200 33007KT P6SM FEW040
     FM271500 27009KT P6SM SKC=

USA.gov is the U.S. government's official web portal to all federal, state and local government web resources and services.